Time;durP1;ratioP1;P1;durP2;ratioP2;P2;SDS_P1;SDS_P2;PMS_P1;PMS_P2;Temp;Humidity;BMP_temperature;BMP_pressure;BME280_temperature;BME280_humidity;BME280_pressure;Samples;Min_cycle;Max_cycle;Signal;HPM_P1;HPM_P2
2021/06/28 00:00:18;;;;;;;11.40;4.83;;;;;;;20.66;87.88;100162.94;1721749;82;21512;-39
2021/06/28 00:02:45;;;;;;;13.62;4.90;;;;;;;20.63;87.81;100164.00;1720808;83;21054;-39
2021/06/28 00:05:15;;;;;;;6.85;4.78;;;;;;;20.61;87.84;100161.94;1721774;83;21003;-39
2021/06/28 00:07:43;;;;;;;11.83;5.45;;;;;;;20.59;88.07;100161.66;1721658;83;20948;-40
2021/06/28 00:10:12;;;;;;;16.07;4.92;;;;;;;20.58;88.11;100164.75;1721703;83;21544;-39
2021/06/28 00:12:38;;;;;;;9.13;5.10;;;;;;;20.57;88.22;100170.13;1722017;81;21124;-40
2021/06/28 00:15:10;;;;;;;11.15;5.12;;;;;;;20.53;88.41;100166.84;1721676;83;21026;-39
2021/06/28 00:17:36;;;;;;;13.13;5.90;;;;;;;20.51;88.54;100167.41;1722006;83;20999;-39
2021/06/28 00:20:05;;;;;;;12.78;5.45;;;;;;;20.49;88.65;100170.16;1721727;83;21628;-39
2021/06/28 00:22:31;;;;;;;8.03;5.15;;;;;;;20.49;88.56;100171.92;1721810;82;21270;-39
2021/06/28 00:24:58;;;;;;;7.58;5.35;;;;;;;20.49;88.52;100158.78;1719653;83;21121;-39
2021/06/28 00:27:25;;;;;;;13.43;6.42;;;;;;;20.50;88.34;100156.52;1700366;83;21054;-39
2021/06/28 00:29:52;;;;;;;10.50;5.95;;;;;;;20.50;88.16;100154.75;1699177;84;20975;-40
2021/06/28 00:32:20;;;;;;;8.73;5.83;;;;;;;20.48;88.05;100150.07;1699116;83;21031;-40
2021/06/28 00:34:48;;;;;;;8.88;5.08;;;;;;;20.50;87.89;100159.16;1699147;83;20944;-40
2021/06/28 00:37:15;;;;;;;6.53;5.70;;;;;;;20.48;87.86;100161.90;1698997;84;21049;-40
2021/06/28 00:39:43;;;;;;;12.00;5.80;;;;;;;20.46;88.02;100164.25;1698962;82;20967;-40
2021/06/28 00:42:09;;;;;;;14.03;6.00;;;;;;;20.45;88.19;100164.70;1699277;83;20971;-39
2021/06/28 00:44:35;;;;;;;9.13;5.83;;;;;;;20.45;88.30;100163.88;1699045;84;20940;-39
2021/06/28 00:47:03;;;;;;;9.83;5.92;;;;;;;20.45;88.34;100152.87;1699174;83;20979;-40
2021/06/28 00:49:29;;;;;;;8.63;6.35;;;;;;;20.46;88.32;100154.59;1698993;83;21694;-39
2021/06/28 00:51:57;;;;;;;18.27;6.55;;;;;;;20.46;88.43;100161.16;1699274;83;21019;-40
2021/06/28 00:54:25;;;;;;;8.18;5.83;;;;;;;20.47;88.44;100165.47;1679486;84;21556;-39
2021/06/28 00:56:52;;;;;;;14.55;6.47;;;;;;;20.47;88.68;100165.93;1699093;83;20992;-39
2021/06/28 00:59:19;;;;;;;6.78;6.17;;;;;;;20.44;88.80;100167.45;1699198;82;20991;-40
2021/06/28 01:01:45;;;;;;;6.40;5.67;;;;;;;20.42;89.09;100171.47;1699315;83;21104;-39
2021/06/28 01:04:12;;;;;;;7.67;5.28;;;;;;;20.41;89.24;100183.41;1699138;84;21513;-40
2021/06/28 01:06:39;;;;;;;7.80;5.50;;;;;;;20.38;89.20;100180.05;1699130;84;21513;-40
2021/06/28 01:09:05;;;;;;;6.33;5.80;;;;;;;20.39;89.18;100178.24;1699111;83;21008;-40
2021/06/28 01:11:31;;;;;;;9.38;5.45;;;;;;;20.39;89.10;100175.16;1699160;82;20972;-41
2021/06/28 01:13:59;;;;;;;10.00;6.05;;;;;;;20.42;89.00;100170.16;1698922;84;21099;-40
2021/06/28 01:16:25;;;;;;;10.95;5.95;;;;;;;20.45;88.67;100174.39;1699019;84;20921;-40
2021/06/28 01:18:53;;;;;;;12.10;5.70;;;;;;;20.48;88.46;100172.41;1699273;82;22143;-40
2021/06/28 01:21:19;;;;;;;6.65;6.03;;;;;;;20.54;88.08;100177.72;1698987;84;20976;-39
2021/06/28 01:23:47;;;;;;;8.70;5.92;;;;;;;20.59;87.57;100176.98;1679145;84;20968;-40
2021/06/28 01:26:13;;;;;;;6.28;5.67;;;;;;;20.65;87.51;100179.66;1702929;82;21119;-40
2021/06/28 01:28:41;;;;;;;5.80;5.22;;;;;;;20.67;87.21;100177.77;1713971;83;21466;-40
2021/06/28 01:31:10;;;;;;;6.90;5.30;;;;;;;20.68;87.30;100184.25;1714105;83;21501;-40
2021/06/28 01:33:36;;;;;;;8.73;5.70;;;;;;;20.70;86.94;100184.14;1714052;83;20948;-40
2021/06/28 01:36:05;;;;;;;7.35;5.58;;;;;;;20.72;86.99;100191.94;1714333;82;20917;-40
2021/06/28 01:38:32;;;;;;;8.60;5.05;;;;;;;20.71;86.89;100192.39;1713906;83;21553;-39
2021/06/28 01:40:59;;;;;;;6.05;5.42;;;;;;;20.70;86.78;100199.09;1713840;82;21028;-39
2021/06/28 01:43:25;;;;;;;8.35;4.95;;;;;;;20.66;86.87;100196.66;1713877;83;20948;-40
2021/06/28 01:45:53;;;;;;;6.55;5.35;;;;;;;20.65;87.30;100200.69;1714163;83;20936;-39
2021/06/28 01:48:20;;;;;;;8.15;5.30;;;;;;;20.63;87.21;100202.13;1714034;83;20976;-39
2021/06/28 01:50:48;;;;;;;8.18;4.83;;;;;;;20.62;87.37;100213.58;1714115;82;21123;-40
2021/06/28 01:53:14;;;;;;;9.13;4.97;;;;;;;20.61;86.97;100213.67;1714012;83;21004;-40
2021/06/28 01:55:41;;;;;;;7.90;5.20;;;;;;;20.59;86.93;100215.55;1713969;83;21481;-40
2021/06/28 01:58:10;;;;;;;9.18;4.33;;;;;;;20.56;86.89;100220.53;1713931;82;21434;-40
2021/06/28 02:00:50;;;;;;;6.90;5.05;;;;;;;20.55;86.98;100216.21;1714003;83;21015;-39
2021/06/28 02:03:19;;;;;;;5.08;4.58;;;;;;;20.53;86.92;100211.53;1713081;83;21174;-39
2021/06/28 02:05:55;;;;;;;9.55;4.75;;;;;;;20.51;86.90;100217.36;1713899;83;21626;-39
2021/06/28 02:08:28;;;;;;;10.53;5.00;;;;;;;20.50;86.91;100218.30;1713867;83;21545;-40
2021/06/28 02:10:57;;;;;;;8.80;4.83;;;;;;;20.52;87.12;100226.92;1714166;82;21079;-40
2021/06/28 02:13:27;;;;;;;6.90;4.62;;;;;;;20.52;87.05;100225.16;1713987;83;21144;-40
2021/06/28 02:15:54;;;;;;;6.00;4.47;;;;;;;20.56;87.23;100223.64;1714194;83;21120;-40
2021/06/28 02:18:23;;;;;;;7.33;4.75;;;;;;;20.57;87.36;100224.84;1713830;82;20992;-40
2021/06/28 02:20:52;;;;;;;6.92;4.40;;;;;;;20.58;87.45;100229.16;1714093;82;21016;-40
2021/06/28 02:23:31;;;;;;;7.45;4.58;;;;;;;20.57;87.37;100223.53;1713930;82;20979;-40
2021/06/28 02:26:08;;;;;;;5.03;4.22;;;;;;;20.57;87.73;100231.91;1714199;82;21545;-41
2021/06/28 02:28:39;;;;;;;10.05;4.70;;;;;;;20.53;87.53;100230.79;1721582;83;21081;-40
2021/06/28 02:31:07;;;;;;;5.62;5.22;;;;;;;20.51;87.69;100227.88;1720973;82;20988;-41
2021/06/28 02:33:35;;;;;;;6.70;4.30;;;;;;;20.50;87.84;100230.13;1721624;81;20967;-41
2021/06/28 02:36:02;;;;;;;7.75;4.92;;;;;;;20.46;87.90;100233.44;1721797;81;21608;-40
2021/06/28 02:38:28;;;;;;;8.13;5.15;;;;;;;20.44;87.96;100235.78;1721611;83;20929;-40
2021/06/28 02:40:55;;;;;;;7.70;4.97;;;;;;;20.44;88.12;100231.84;1721582;83;21054;-40
2021/06/28 02:43:22;;;;;;;11.30;4.60;;;;;;;20.39;88.33;100229.50;1721447;83;20995;-40
2021/06/28 02:45:48;;;;;;;8.53;5.30;;;;;;;20.36;88.58;100232.32;1721689;81;21035;-40
2021/06/28 02:48:16;;;;;;;6.62;5.97;;;;;;;20.36;89.28;100243.70;1721767;83;21465;-40
2021/06/28 02:50:43;;;;;;;6.30;5.70;;;;;;;20.37;89.81;100248.47;1721833;83;20912;-41
2021/06/28 02:53:09;;;;;;;9.45;5.67;;;;;;;20.36;89.43;100253.34;1721809;81;21106;-40
2021/06/28 02:55:36;;;;;;;9.43;5.83;;;;;;;20.37;89.59;100249.32;1721782;81;20975;-40
2021/06/28 02:58:03;;;;;;;7.60;5.60;;;;;;;20.37;89.46;100252.41;1721784;82;20991;-40
2021/06/28 03:00:30;;;;;;;9.33;5.60;;;;;;;20.35;89.32;100248.58;1721685;82;20987;-40
2021/06/28 03:02:59;;;;;;;10.32;6.12;;;;;;;20.36;89.59;100266.48;1721837;81;21064;-40
2021/06/28 03:05:25;;;;;;;13.68;5.30;;;;;;;20.39;88.92;100266.29;1722147;81;21143;-40
2021/06/28 03:07:51;;;;;;;8.28;5.58;;;;;;;20.43;89.05;100261.70;1721773;82;20999;-40
2021/06/28 03:10:18;;;;;;;9.43;5.47;;;;;;;20.46;89.03;100272.02;1721727;83;20959;-40
2021/06/28 03:12:44;;;;;;;5.90;5.37;;;;;;;20.44;88.67;100271.27;1721781;83;20983;-40
2021/06/28 03:15:14;;;;;;;7.95;5.90;;;;;;;20.42;88.63;100267.89;1721856;81;20939;-40
2021/06/28 03:17:40;;;;;;;9.30;5.87;;;;;;;20.41;88.64;100262.27;1721727;83;21189;-40
2021/06/28 03:20:10;;;;;;;14.45;6.75;;;;;;;20.42;88.84;100275.78;1721962;81;21047;-40
2021/06/28 03:22:40;;;;;;;6.67;5.92;;;;;;;20.42;88.29;100267.41;1721591;81;22185;-40
2021/06/28 03:25:10;;;;;;;6.97;6.37;;;;;;;20.44;88.18;100264.21;1721871;81;21026;-40
2021/06/28 03:27:36;;;;;;;7.03;6.15;;;;;;;20.43;87.71;100270.41;1721643;81;20979;-40
2021/06/28 03:30:06;;;;;;;12.60;5.80;;;;;;;20.45;87.73;100272.95;1721942;81;21724;-40
2021/06/28 03:32:33;;;;;;;6.45;5.95;;;;;;;20.49;87.71;100271.81;1721709;83;20951;-40
2021/06/28 03:35:00;;;;;;;8.30;6.30;;;;;;;20.55;87.51;100267.97;1721959;81;21032;-40
2021/06/28 03:37:27;;;;;;;7.60;5.85;;;;;;;20.57;87.37;100268.70;1721721;81;21498;-40
2021/06/28 03:39:55;;;;;;;13.15;6.80;;;;;;;20.60;86.94;100261.48;1721851;83;21059;-40
2021/06/28 03:42:21;;;;;;;13.40;6.20;;;;;;;20.61;86.25;100258.36;1721783;83;22046;-40
2021/06/28 03:44:47;;;;;;;8.08;6.55;;;;;;;20.62;86.55;100263.54;1721843;81;21044;-40
2021/06/28 03:47:14;;;;;;;8.13;6.53;;;;;;;20.64;86.17;100260.34;1721779;83;20997;-40
2021/06/28 03:49:41;;;;;;;9.78;6.47;;;;;;;20.68;86.08;100253.08;1721876;81;21417;-40
2021/06/28 03:52:07;;;;;;;8.78;5.92;;;;;;;20.86;85.83;100253.73;1721732;81;21010;-40
2021/06/28 03:54:34;;;;;;;6.65;5.95;;;;;;;21.01;85.62;100255.83;1721873;81;21846;-40
2021/06/28 03:57:01;;;;;;;6.97;6.25;;;;;;;21.21;84.55;100258.45;1721774;83;21623;-40
2021/06/28 03:59:27;;;;;;;9.60;6.55;;;;;;;21.35;83.75;100260.65;1721871;83;21366;-40
2021/06/28 04:01:53;;;;;;;7.72;6.42;;;;;;;21.43;82.91;100257.02;1721763;82;20952;-40
2021/06/28 04:04:20;;;;;;;6.78;6.05;;;;;;;21.48;82.75;100258.86;1721934;81;20975;-40
2021/06/28 04:06:47;;;;;;;6.62;6.05;;;;;;;21.51;82.26;100257.33;1721809;83;21145;-40
2021/06/28 04:09:13;;;;;;;7.40;6.45;;;;;;;21.57;82.41;100257.39;1721829;81;21573;-42
2021/06/28 04:11:41;;;;;;;10.43;6.78;;;;;;;21.65;82.01;100258.23;1721925;83;20988;-39
2021/06/28 04:14:07;;;;;;;6.90;5.92;;;;;;;21.68;81.04;100263.28;1717218;82;21683;-40
2021/06/28 04:16:34;;;;;;;9.18;6.22;;;;;;;21.65;81.43;100257.73;1721660;83;20912;-40
2021/06/28 04:19:00;;;;;;;7.83;5.92;;;;;;;21.73;80.97;100262.98;1721741;83;21079;-39
2021/06/28 04:21:27;;;;;;;8.83;6.00;;;;;;;21.77;81.23;100259.17;1721684;83;20900;-40
2021/06/28 04:23:53;;;;;;;6.53;5.92;;;;;;;21.88;81.06;100258.44;1721648;83;20995;-40
2021/06/28 04:26:20;;;;;;;9.48;6.42;;;;;;;22.00;79.86;100264.16;1721751;82;21046;-40
2021/06/28 04:28:46;;;;;;;9.58;6.30;;;;;;;22.03;80.04;100265.25;1721718;81;20905;-40
2021/06/28 04:31:13;;;;;;;13.43;6.60;;;;;;;22.18;80.06;100262.51;1721639;83;21118;-40
2021/06/28 04:33:39;;;;;;;8.00;6.55;;;;;;;22.27;78.58;100260.53;1721749;83;21521;-41
2021/06/28 04:36:06;;;;;;;7.05;6.33;;;;;;;22.23;78.35;100265.66;1721822;83;21513;-40
2021/06/28 04:38:33;;;;;;;9.93;5.80;;;;;;;22.29;79.16;100266.53;1721722;83;20991;-40
2021/06/28 04:40:59;;;;;;;6.47;5.87;;;;;;;22.51;79.28;100278.22;1721730;83;20968;-40
2021/06/28 04:43:26;;;;;;;6.55;5.95;;;;;;;22.82;78.62;100270.25;1721575;83;21148;-40
2021/06/28 04:45:52;;;;;;;6.65;6.05;;;;;;;23.10;77.61;100276.12;1721634;82;21039;-40
2021/06/28 04:48:19;;;;;;;6.05;5.55;;;;;;;23.50;76.67;100264.39;1721823;83;20900;-41
2021/06/28 04:50:46;;;;;;;7.20;5.45;;;;;;;23.95;75.57;100271.52;1721631;83;20956;-40
2021/06/28 04:53:13;;;;;;;6.62;5.97;;;;;;;24.32;74.63;100263.84;1721972;81;21007;-40
2021/06/28 04:55:41;;;;;;;9.08;5.50;;;;;;;24.48;70.84;100266.09;1693430;83;21038;-40
2021/06/28 04:58:07;;;;;;;6.55;5.40;;;;;;;24.35;71.33;100259.62;1721852;81;21342;-41
2021/06/28 05:00:34;;;;;;;6.65;5.78;;;;;;;24.21;70.93;100261.23;1721628;81;21497;-40
2021/06/28 05:03:00;;;;;;;13.53;5.92;;;;;;;24.10;72.12;100262.90;1721573;81;21040;-40
2021/06/28 05:05:27;;;;;;;5.90;5.33;;;;;;;24.11;71.42;100263.26;1721701;83;21024;-40
2021/06/28 05:07:53;;;;;;;11.38;5.67;;;;;;;24.01;71.61;100268.92;1722013;83;21117;-41
2021/06/28 05:10:20;;;;;;;6.55;6.00;;;;;;;24.06;71.55;100271.22;1721684;81;21513;-40
2021/06/28 05:12:46;;;;;;;14.65;6.00;;;;;;;24.16;70.72;100273.98;1721812;82;22210;-40
2021/06/28 05:15:13;;;;;;;6.60;5.70;;;;;;;24.10;71.23;100278.77;1721604;83;20948;-41
2021/06/28 05:17:40;;;;;;;7.33;5.50;;;;;;;24.03;71.22;100278.89;1721615;83;21034;-41
2021/06/28 05:20:09;;;;;;;7.28;5.55;;;;;;;24.04;71.38;100279.25;1721563;81;21066;-41
2021/06/28 05:22:35;;;;;;;6.30;5.70;;;;;;;24.11;71.11;100273.01;1721682;81;20948;-41
2021/06/28 05:25:03;;;;;;;11.20;5.85;;;;;;;24.27;70.49;100279.24;1721552;81;20984;-41
2021/06/28 05:27:30;;;;;;;6.05;5.55;;;;;;;24.41;70.52;100279.46;1720330;83;21046;-41
2021/06/28 05:29:56;;;;;;;14.43;5.70;;;;;;;24.52;69.21;100282.58;1714143;83;21043;-41
2021/06/28 05:32:24;;;;;;;9.40;6.10;;;;;;;24.58;68.41;100291.33;1714200;82;21548;-41
2021/06/28 05:34:51;;;;;;;6.60;5.67;;;;;;;24.34;67.56;100292.83;1714150;83;20948;-40
2021/06/28 05:37:18;;;;;;;8.88;5.37;;;;;;;23.96;68.89;100291.70;1713877;83;21054;-41
2021/06/28 05:39:46;;;;;;;7.78;5.45;;;;;;;23.61;69.73;100306.30;1714051;83;20987;-41
2021/06/28 05:42:13;;;;;;;7.85;5.70;;;;;;;23.33;71.05;100317.63;1713916;82;21018;-41
2021/06/28 05:44:41;;;;;;;9.85;5.47;;;;;;;23.20;71.85;100310.61;1713906;83;21968;-41
2021/06/28 05:47:08;;;;;;;6.45;5.12;;;;;;;23.22;72.25;100312.65;1714185;83;21035;-41
2021/06/28 05:49:37;;;;;;;13.13;5.15;;;;;;;23.43;72.34;100310.72;1713910;83;20999;-40
2021/06/28 05:52:05;;;;;;;9.80;5.10;;;;;;;23.60;71.49;100309.91;1714375;83;20944;-41
2021/06/28 05:54:31;;;;;;;10.10;5.42;;;;;;;23.70;70.75;100314.02;1713879;82;20917;-41
2021/06/28 05:56:58;;;;;;;11.78;5.65;;;;;;;23.68;69.62;100312.83;1714230;83;21052;-41
2021/06/28 05:59:25;;;;;;;9.45;4.70;;;;;;;23.42;70.96;100309.04;1713938;83;21604;-41
2021/06/28 06:01:51;;;;;;;7.53;5.25;;;;;;;23.24;71.66;100317.80;1714228;83;20992;-38
2021/06/28 06:04:18;;;;;;;8.28;5.10;;;;;;;23.02;72.52;100323.38;1713761;82;21007;-39
2021/06/28 06:06:44;;;;;;;6.53;5.42;;;;;;;22.81;73.92;100325.75;1713918;83;20972;-39
2021/06/28 06:09:11;;;;;;;7.00;5.60;;;;;;;22.62;74.95;100327.56;1713862;82;21027;-39
2021/06/28 06:11:39;;;;;;;10.38;6.00;;;;;;;22.48;75.29;100337.77;1713908;82;21024;-39
2021/06/28 06:14:06;;;;;;;9.25;5.70;;;;;;;22.35;76.32;100336.44;1713993;83;20984;-39
2021/06/28 06:16:32;;;;;;;6.25;5.60;;;;;;;22.30;76.40;100339.88;1693362;83;21530;-38
2021/06/28 06:18:58;;;;;;;15.25;5.67;;;;;;;22.22;76.84;100335.14;1714049;83;20956;-39
2021/06/28 06:21:25;;;;;;;15.48;5.22;;;;;;;22.35;76.34;100335.13;1713762;83;21079;-39
2021/06/28 06:23:51;;;;;;;6.85;5.42;;;;;;;22.67;76.55;100339.47;1713730;82;21107;-40
2021/06/28 06:28:49;;;;;;;6.22;4.15;;;;;;;23.63;73.11;100333.47;1870448;76;22753;-40
2021/06/28 06:31:19;;;;;;;6.00;4.55;;;;;;;23.99;70.68;100343.96;1826719;78;20899;-39
2021/06/28 06:33:46;;;;;;;13.22;4.60;;;;;;;24.17;68.39;100343.07;1826585;78;21145;-40
2021/06/28 06:36:13;;;;;;;7.60;4.15;;;;;;;24.06;68.10;100342.09;1826453;78;20962;-41
2021/06/28 06:41:36;;;;;;;4.47;4.00;;;;;;;24.15;67.42;100343.17;1815450;79;22720;-40
2021/06/28 06:44:04;;;;;;;4.05;3.62;;;;;;;24.21;67.19;100346.66;1788495;80;20939;-40
2021/06/28 06:46:31;;;;;;;5.53;3.60;;;;;;;24.21;65.15;100347.98;1788488;80;21219;-39
2021/06/28 06:48:58;;;;;;;6.03;4.50;;;;;;;24.06;66.92;100348.70;1788408;80;20963;-39
2021/06/28 06:51:27;;;;;;;6.33;4.35;;;;;;;23.94;66.31;100354.41;1788667;80;21070;-39
2021/06/28 06:53:54;;;;;;;6.95;4.22;;;;;;;23.77;66.90;100351.74;1788399;80;20952;-40
2021/06/28 06:56:20;;;;;;;5.28;4.60;;;;;;;23.64;68.27;100354.47;1788513;80;20945;-41
2021/06/28 06:58:46;;;;;;;9.83;4.60;;;;;;;23.61;68.91;100361.77;1788549;80;21113;-40
2021/06/28 07:01:16;;;;;;;8.68;5.22;;;;;;;23.54;69.00;100367.52;1788609;80;20920;-42
2021/06/28 07:03:47;;;;;;;16.17;7.20;;;;;;;23.36;70.30;100366.25;1788558;80;20987;-40
2021/06/28 07:06:13;;;;;;;29.50;8.43;;;;;;;23.19;72.13;100367.00;1788282;80;20932;-40
2021/06/28 07:08:41;;;;;;;20.65;9.03;;;;;;;23.06;73.09;100367.52;1788512;80;20983;-39
2021/06/28 07:11:10;;;;;;;13.70;8.53;;;;;;;23.04;73.09;100365.47;1788591;80;21846;-40
2021/06/28 07:13:37;;;;;;;18.32;9.45;;;;;;;23.30;74.37;100363.60;1788586;80;21525;-39
2021/06/28 07:16:05;;;;;;;16.12;9.20;;;;;;;23.68;71.53;100359.88;1788565;80;21026;-40
2021/06/28 07:18:31;;;;;;;20.52;8.85;;;;;;;23.71;70.59;100360.14;1788474;80;20924;-40
2021/06/28 07:20:58;;;;;;;61.63;9.70;;;;;;;23.86;72.03;100366.52;1788498;80;20944;-40
2021/06/28 07:23:24;;;;;;;72.70;9.50;;;;;;;24.00;68.58;100380.86;1765983;80;21079;-40
2021/06/28 07:25:52;;;;;;;15.50;8.18;;;;;;;23.83;68.85;100371.58;1759889;81;21031;-40
2021/06/28 07:28:18;;;;;;;30.90;9.13;;;;;;;23.77;69.20;100370.23;1759847;81;21512;-39
2021/06/28 07:30:45;;;;;;;22.85;8.50;;;;;;;23.78;69.59;100364.00;1759909;81;21517;-40
2021/06/28 07:33:11;;;;;;;22.95;8.70;;;;;;;23.90;69.71;100373.28;1759741;79;20967;-40
2021/06/28 07:35:38;;;;;;;58.95;10.08;;;;;;;24.01;68.53;100364.07;1759766;79;21147;-39
2021/06/28 07:38:04;;;;;;;26.12;9.33;;;;;;;24.03;68.87;100367.44;1759688;81;21504;-39
2021/06/28 07:40:30;;;;;;;22.17;8.10;;;;;;;24.15;68.47;100374.08;1754362;80;20996;-39
2021/06/28 07:42:58;;;;;;;33.28;7.35;;;;;;;24.13;68.63;100378.14;1746685;82;20984;-40
2021/06/28 07:45:24;;;;;;;20.88;7.95;;;;;;;24.04;68.55;100367.80;1746745;82;20979;-40
2021/06/28 07:47:51;;;;;;;12.20;7.50;;;;;;;24.06;68.71;100370.34;1725400;82;21086;-40
2021/06/28 07:50:17;;;;;;;26.95;7.20;;;;;;;24.18;69.05;100369.37;1746719;82;20984;-40
2021/06/28 07:52:44;;;;;;;6.95;6.25;;;;;;;24.33;69.45;100363.38;1746222;80;21035;-40
2021/06/28 07:55:13;;;;;;;12.53;5.95;;;;;;;24.73;68.14;100371.28;1746141;82;20917;-40
2021/06/28 07:57:39;;;;;;;13.05;6.40;;;;;;;24.91;66.48;100372.98;1738616;80;21541;-40
2021/06/28 08:00:10;;;;;;;7.80;5.80;;;;;;;24.77;65.78;100376.74;1716837;83;21808;-40
2021/06/28 08:02:38;;;;;;;10.25;5.70;;;;;;;24.85;66.55;100375.28;1729680;82;20967;-41
2021/06/28 08:05:06;;;;;;;31.73;5.80;;;;;;;25.19;67.86;100373.39;1746570;82;20912;-40
2021/06/28 08:07:33;;;;;;;31.50;5.75;;;;;;;25.70;62.97;100382.09;1746511;82;20960;-40
2021/06/28 08:10:00;;;;;;;49.70;6.72;;;;;;;25.67;63.03;100372.61;1746710;82;20944;-41
2021/06/28 08:12:26;;;;;;;11.63;5.80;;;;;;;25.62;61.76;100384.06;1746578;80;21077;-40
2021/06/28 08:14:53;;;;;;;6.50;5.53;;;;;;;25.27;63.20;100391.77;1732538;82;21027;-41
2021/06/28 08:17:22;;;;;;;20.08;6.40;;;;;;;24.89;63.51;100397.41;1722243;82;21446;-41
2021/06/28 08:19:48;;;;;;;14.75;5.42;;;;;;;24.58;65.62;100383.92;1716930;83;21027;-40
2021/06/28 08:22:16;;;;;;;13.10;6.10;;;;;;;24.71;65.75;100393.05;1751488;80;20959;-40
2021/06/28 08:24:42;;;;;;;12.03;5.90;;;;;;;24.83;65.85;100388.63;1782702;79;21144;-40
2021/06/28 08:27:10;;;;;;;45.52;7.00;;;;;;;25.00;64.99;100396.52;1758256;80;20960;-41
2021/06/28 08:29:38;;;;;;;76.60;7.65;;;;;;;25.07;64.33;100400.84;1728202;82;20885;-40
2021/06/28 08:32:05;;;;;;;138.35;11.40;;;;;;;25.13;63.58;100406.14;1716772;81;20984;-40
2021/06/28 08:34:32;;;;;;;67.15;8.38;;;;;;;25.20;63.59;100400.22;1716341;83;20963;-40
2021/06/28 08:37:00;;;;;;;32.50;6.85;;;;;;;25.37;64.15;100386.06;1716173;83;21191;-41
2021/06/28 08:39:28;;;;;;;63.83;8.55;;;;;;;25.64;63.13;100396.69;1716149;83;21024;-41
2021/06/28 08:41:55;;;;;;;58.38;6.92;;;;;;;25.76;63.21;100392.17;1729275;82;21026;-41
2021/06/28 08:44:23;;;;;;;37.20;7.37;;;;;;;26.13;61.88;100395.70;1731830;82;21612;-40
2021/06/28 08:46:50;;;;;;;60.20;7.87;;;;;;;26.24;59.77;100395.64;1731872;81;21019;-42
2021/06/28 08:49:17;;;;;;;128.45;9.15;;;;;;;26.27;61.04;100402.97;1732149;82;21163;-41
2021/06/28 08:51:44;;;;;;;52.88;6.30;;;;;;;26.34;58.81;100402.32;1732535;82;20972;-40
2021/06/28 08:54:13;;;;;;;38.35;5.33;;;;;;;26.28;59.55;100413.47;1732230;82;20953;-40
2021/06/28 08:56:43;;;;;;;57.10;6.28;;;;;;;26.26;60.43;100414.08;1732006;82;20960;-42
2021/06/28 08:59:10;;;;;;;29.35;5.37;;;;;;;26.30;58.23;100416.00;1732096;82;20940;-42
2021/06/28 09:01:37;;;;;;;73.20;7.05;;;;;;;26.22;59.25;100420.13;1732220;82;21819;-42
2021/06/28 09:04:05;;;;;;;58.13;7.10;;;;;;;26.29;59.90;100422.28;1739084;81;21004;-39
2021/06/28 09:06:31;;;;;;;38.25;6.55;;;;;;;26.36;58.72;100416.29;1761570;80;20903;-40
2021/06/28 09:09:02;;;;;;;26.82;4.83;;;;;;;26.44;58.90;100422.77;1750309;81;20938;-42
2021/06/28 09:11:34;;;;;;;39.35;5.62;;;;;;;26.39;58.20;100427.13;1732918;82;20956;-40
2021/06/28 09:14:01;;;;;;;49.10;5.25;;;;;;;26.38;59.07;100416.99;1732025;82;21150;-41
2021/06/28 09:16:29;;;;;;;22.93;5.00;;;;;;;26.30;58.31;100422.12;1707477;82;20916;-41
2021/06/28 09:19:12;;;;;;;83.60;6.22;;;;;;;26.23;58.71;100423.63;1736080;81;20992;-41
2021/06/28 09:21:46;;;;;;;23.55;5.28;;;;;;;26.19;59.73;100419.57;1762312;81;21510;-39
2021/06/28 09:24:30;;;;;;;31.35;5.67;;;;;;;26.21;58.80;100421.60;1736687;81;20988;-40
2021/06/28 09:27:10;;;;;;;8.70;4.12;;;;;;;26.26;57.74;100432.66;1712954;81;21288;-40
2021/06/28 09:29:46;;;;;;;39.55;5.75;;;;;;;26.26;58.59;100427.34;1741687;80;21621;-40
2021/06/28 09:32:17;;;;;;;63.02;7.15;;;;;;;26.44;57.15;100416.95;1735543;80;20969;-40
2021/06/28 09:34:45;;;;;;;56.13;6.80;;;;;;;26.36;56.72;100429.55;1764712;80;21005;-41
2021/06/28 09:37:13;;;;;;;48.23;6.70;;;;;;;26.22;58.41;100427.26;1745979;81;20905;-41
2021/06/28 09:39:47;;;;;;;29.20;5.70;;;;;;;26.25;57.23;100428.32;1742136;81;21171;-40
2021/06/28 09:42:16;;;;;;;57.78;6.85;;;;;;;26.22;57.02;100431.23;1729662;81;20972;-41
2021/06/28 09:45:00;;;;;;;23.20;4.58;;;;;;;26.31;57.18;100423.81;1704614;84;20979;-41
2021/06/28 09:47:30;;;;;;;58.08;6.30;;;;;;;26.42;55.88;100430.02;1704498;84;20949;-39
2021/06/28 09:50:02;;;;;;;46.68;6.85;;;;;;;26.35;54.64;100419.09;1679411;85;20968;-39
2021/06/28 09:52:39;;;;;;;55.40;6.70;;;;;;;26.28;55.16;100421.92;1700492;84;21152;-40
2021/06/28 09:55:33;;;;;;;41.65;6.42;;;;;;;26.32;54.22;100421.51;1703156;84;21043;-40
2021/06/28 09:58:25;;;;;;;75.20;9.63;;;;;;;26.21;55.39;100429.05;1699511;84;21525;-41
2021/06/28 10:00:57;;;;;;;41.10;6.20;;;;;;;26.29;56.28;100431.06;1702521;84;20945;-39
2021/06/28 10:08:52;;;;;;;62.45;6.33;;;;;;;26.70;55.18;100415.67;1678353;84;21125;-40
2021/06/28 10:11:25;;;;;;;10.45;5.28;;;;;;;26.89;53.24;100423.70;1676365;84;20929;-41
2021/06/28 10:14:04;;;;;;;23.55;6.37;;;;;;;26.74;54.43;100436.98;1686433;84;20957;-41
2021/06/28 10:16:34;;;;;;;10.53;5.62;;;;;;;26.58;54.31;100432.18;1693838;84;20973;-40
2021/06/28 10:19:02;;;;;;;9.35;5.20;;;;;;;26.53;55.57;100429.91;1675832;84;21080;-42
2021/06/28 10:21:29;;;;;;;8.20;5.12;;;;;;;26.59;55.50;100424.07;1676145;84;21004;-41
2021/06/28 10:23:55;;;;;;;6.90;4.62;;;;;;;26.69;56.23;100429.41;1676299;84;21022;-42
2021/06/28 10:26:23;;;;;;;20.55;5.17;;;;;;;26.81;53.95;100427.50;1676902;84;21563;-41
2021/06/28 10:28:49;;;;;;;10.93;3.90;;;;;;;26.74;52.47;100434.33;1677032;84;21064;-41
2021/06/28 10:31:16;;;;;;;11.75;4.10;;;;;;;26.57;54.75;100433.98;1701362;84;21113;-41
2021/06/28 10:33:47;;;;;;;19.02;4.58;;;;;;;26.67;54.84;100436.67;1704675;83;21036;-40
2021/06/28 10:36:14;;;;;;;17.77;4.17;;;;;;;26.87;54.18;100440.77;1693873;84;21008;-41
2021/06/28 10:38:51;;;;;;;16.42;4.92;;;;;;;27.08;54.27;100435.36;1678040;84;20996;-41
2021/06/28 10:41:37;;;;;;;14.13;4.45;;;;;;;27.20;53.14;100442.24;1691689;83;21519;-40
2021/06/28 10:44:06;;;;;;;13.85;3.50;;;;;;;27.05;53.97;100428.99;1673091;84;21153;-41
2021/06/28 10:46:36;;;;;;;45.45;4.87;;;;;;;26.92;51.59;100435.41;1676302;85;21421;-40
2021/06/28 10:49:06;;;;;;;99.95;8.63;;;;;;;26.72;53.18;100446.39;1676702;84;21438;-40
2021/06/28 10:51:49;;;;;;;42.55;4.97;;;;;;;26.62;53.48;100445.03;1698802;84;21039;-40
2021/06/28 10:54:18;;;;;;;16.77;3.60;;;;;;;26.65;53.89;100445.26;1705023;83;21005;-40
2021/06/28 10:56:49;;;;;;;65.30;7.28;;;;;;;26.82;53.65;100449.09;1705065;84;21122;-40
2021/06/28 10:59:22;;;;;;;6.65;3.47;;;;;;;27.02;53.71;100448.69;1704402;84;20933;-40
2021/06/28 11:02:01;;;;;;;27.77;3.40;;;;;;;27.16;53.35;100451.94;1693866;84;21506;-40
2021/06/28 11:04:32;;;;;;;32.17;3.98;;;;;;;27.22;53.12;100445.59;1676748;85;21538;-40
2021/06/28 11:07:04;;;;;;;43.40;5.33;;;;;;;27.27;51.64;100448.33;1676761;85;20996;-40
2021/06/28 11:09:39;;;;;;;35.50;3.45;;;;;;;27.22;52.07;100449.59;1695387;84;21957;-40
2021/06/28 11:12:29;;;;;;;61.28;4.95;;;;;;;27.25;51.49;100454.62;1705024;82;20985;-41
2021/06/28 11:15:24;;;;;;;74.70;6.35;;;;;;;27.37;50.70;100438.54;1704039;84;21000;-39
2021/06/28 11:17:54;;;;;;;5.25;2.72;;;;;;;27.40;49.79;100448.41;1676225;84;20999;-39
2021/06/28 11:20:38;;;;;;;11.55;2.58;;;;;;;27.34;49.52;100438.81;1676218;85;20992;-39
2021/06/28 11:23:16;;;;;;;14.95;3.35;;;;;;;27.43;51.94;100444.65;1678233;84;21168;-42
2021/06/28 11:25:54;;;;;;;37.23;4.75;;;;;;;27.69;49.95;100434.82;1672695;85;20913;-39
2021/06/28 11:28:27;;;;;;;40.60;5.42;;;;;;;27.65;49.47;100429.41;1676767;85;20953;-39
2021/06/28 11:31:02;;;;;;;89.93;7.03;;;;;;;27.60;49.37;100436.50;1691588;84;20952;-39
2021/06/28 11:33:44;;;;;;;36.33;4.30;;;;;;;27.57;50.00;100434.60;1705260;82;21020;-40
2021/06/28 11:36:33;;;;;;;61.90;5.22;;;;;;;27.58;49.32;100437.60;1705253;84;21187;-40
2021/06/28 11:39:29;;;;;;;33.73;4.65;;;;;;;27.48;49.96;100444.21;1677004;85;20870;-41